sensor_id;sensor_type;location;lat;lon;timestamp;pressure;altitude;pressure_sealevel;temperature;humidity
17525;BME280;40431;52.198;9.902;2023-04-01T00:00:32;98629.03;;;10.05;100.00
17525;BME280;40431;52.198;9.902;2023-04-01T00:02:58;98632.19;;;10.10;100.00
17525;BME280;40431;52.198;9.902;2023-04-01T00:05:25;98637.16;;;10.05;100.00
17525;BME280;40431;52.198;9.902;2023-04-01T00:07:51;98631.72;;;10.05;100.00
17525;BME280;40431;52.198;9.902;2023-04-01T00:10:20;98630.28;;;10.00;100.00
17525;BME280;40431;52.198;9.902;2023-04-01T00:12:47;98632.84;;;10.02;100.00
17525;BME280;40431;52.198;9.902;2023-04-01T00:15:13;98634.88;;;10.00;100.00
17525;BME280;40431;52.198;9.902;2023-04-01T00:17:40;98630.16;;;10.02;100.00
17525;BME280;40431;52.198;9.902;2023-04-01T00:20:07;98636.31;;;10.04;100.00
17525;BME280;40431;52.198;9.902;2023-04-01T00:22:34;98630.00;;;10.03;100.00
17525;BME280;40431;52.198;9.902;2023-04-01T00:25:01;98629.16;;;10.03;100.00
17525;BME280;40431;52.198;9.902;2023-04-01T00:27:30;98629.63;;;10.08;100.00
17525;BME280;40431;52.198;9.902;2023-04-01T00:29:57;98627.19;;;10.05;100.00
17525;BME280;40431;52.198;9.902;2023-04-01T00:32:23;98622.63;;;10.06;100.00
17525;BME280;40431;52.198;9.902;2023-04-01T00:34:50;98633.44;;;10.06;100.00
17525;BME280;40431;52.198;9.902;2023-04-01T00:37:17;98633.75;;;10.12;100.00
17525;BME280;40431;52.198;9.902;2023-04-01T00:39:44;98627.34;;;10.13;100.00
17525;BME280;40431;52.198;9.902;2023-04-01T00:42:11;98631.03;;;10.12;100.00
17525;BME280;40431;52.198;9.902;2023-04-01T00:44:40;98630.06;;;10.13;100.00
17525;BME280;40431;52.198;9.902;2023-04-01T00:47:07;98630.75;;;10.15;100.00
17525;BME280;40431;52.198;9.902;2023-04-01T00:49:37;98626.34;;;10.14;100.00
17525;BME280;40431;52.198;9.902;2023-04-01T00:52:08;98627.50;;;10.12;100.00
17525;BME280;40431;52.198;9.902;2023-04-01T00:54:37;98628.34;;;10.12;100.00
17525;BME280;40431;52.198;9.902;2023-04-01T00:57:06;98632.03;;;10.11;100.00
17525;BME280;40431;52.198;9.902;2023-04-01T00:59:38;98636.31;;;10.14;100.00
17525;BME280;40431;52.198;9.902;2023-04-01T01:02:09;98631.03;;;10.12;100.00
17525;BME280;40431;52.198;9.902;2023-04-01T01:04:37;98637.16;;;10.14;100.00
17525;BME280;40431;52.198;9.902;2023-04-01T01:07:12;98635.16;;;10.07;100.00
17525;BME280;40431;52.198;9.902;2023-04-01T01:09:45;98638.28;;;10.02;100.00
17525;BME280;40431;52.198;9.902;2023-04-01T01:12:16;98634.13;;;9.98;100.00
17525;BME280;40431;52.198;9.902;2023-04-01T01:14:52;98633.69;;;9.93;100.00
17525;BME280;40431;52.198;9.902;2023-04-01T01:17:26;98631.25;;;9.90;100.00
17525;BME280;40431;52.198;9.902;2023-04-01T01:23:19;98633.69;;;9.93;100.00
17525;BME280;40431;52.198;9.902;2023-04-01T01:25:54;98627.28;;;9.94;100.00
17525;BME280;40431;52.198;9.902;2023-04-01T01:28:33;98622.59;;;9.96;100.00
17525;BME280;40431;52.198;9.902;2023-04-01T01:31:12;98629.69;;;9.87;100.00
17525;BME280;40431;52.198;9.902;2023-04-01T01:33:51;98622.00;;;9.92;100.00
17525;BME280;40431;52.198;9.902;2023-04-01T01:36:21;98622.41;;;9.88;100.00
17525;BME280;40431;52.198;9.902;2023-04-01T01:38:48;98620.72;;;9.86;100.00
17525;BME280;40431;52.198;9.902;2023-04-01T01:41:17;98628.84;;;9.86;100.00
17525;BME280;40431;52.198;9.902;2023-04-01T01:43:47;98618.00;;;9.86;100.00
17525;BME280;40431;52.198;9.902;2023-04-01T01:46:18;98618.25;;;9.83;100.00
17525;BME280;40431;52.198;9.902;2023-04-01T01:48:47;98617.09;;;9.76;100.00
17525;BME280;40431;52.198;9.902;2023-04-01T01:51:15;98625.22;;;9.76;100.00
17525;BME280;40431;52.198;9.902;2023-04-01T01:53:44;98625.63;;;9.72;100.00
17525;BME280;40431;52.198;9.902;2023-04-01T01:56:11;98629.91;;;9.74;100.00
17525;BME280;40431;52.198;9.902;2023-04-01T01:58:43;98621.91;;;9.73;100.00
17525;BME280;40431;52.198;9.902;2023-04-01T02:01:12;98625.31;;;9.65;100.00
17525;BME280;40431;52.198;9.902;2023-04-01T02:03:42;98616.47;;;9.63;100.00
17525;BME280;40431;52.198;9.902;2023-04-01T02:06:11;98623.19;;;9.68;100.00
17525;BME280;40431;52.198;9.902;2023-04-01T02:08:43;98634.84;;;9.69;100.00
17525;BME280;40431;52.198;9.902;2023-04-01T02:11:13;98635.00;;;9.67;100.00
17525;BME280;40431;52.198;9.902;2023-04-01T02:13:45;98627.75;;;9.68;100.00
17525;BME280;40431;52.198;9.902;2023-04-01T02:16:17;98631.31;;;9.68;100.00
17525;BME280;40431;52.198;9.902;2023-04-01T02:18:48;98632.44;;;9.66;100.00
17525;BME280;40431;52.198;9.902;2023-04-01T02:21:17;98630.16;;;9.61;100.00
17525;BME280;40431;52.198;9.902;2023-04-01T02:23:46;98635.28;;;9.64;100.00
17525;BME280;40431;52.198;9.902;2023-04-01T02:26:14;98629.41;;;9.59;100.00
17525;BME280;40431;52.198;9.902;2023-04-01T02:28:42;98646.38;;;9.61;100.00
17525;BME280;40431;52.198;9.902;2023-04-01T02:31:11;98628.56;;;9.59;100.00
17525;BME280;40431;52.198;9.902;2023-04-01T02:33:39;98632.72;;;9.63;100.00
17525;BME280;40431;52.198;9.902;2023-04-01T02:36:10;98640.56;;;9.66;100.00
17525;BME280;40431;52.198;9.902;2023-04-01T02:38:37;98630.72;;;9.65;100.00
17525;BME280;40431;52.198;9.902;2023-04-01T02:41:05;98635.88;;;9.68;100.00
17525;BME280;40431;52.198;9.902;2023-04-01T02:43:32;98633.88;;;9.70;100.00
17525;BME280;40431;52.198;9.902;2023-04-01T02:45:58;98639.00;;;9.73;100.00
17525;BME280;40431;52.198;9.902;2023-04-01T02:48:25;98638.16;;;9.73;100.00
17525;BME280;40431;52.198;9.902;2023-04-01T02:50:51;98637.03;;;9.75;100.00
17525;BME280;40431;52.198;9.902;2023-04-01T02:53:18;98639.00;;;9.73;100.00
17525;BME280;40431;52.198;9.902;2023-04-01T02:55:44;98642.72;;;9.72;100.00
17525;BME280;40431;52.198;9.902;2023-04-01T02:58:12;98640.03;;;9.72;100.00
17525;BME280;40431;52.198;9.902;2023-04-01T03:00:38;98640.28;;;9.69;100.00
17525;BME280;40431;52.198;9.902;2023-04-01T03:03:05;98647.69;;;9.67;100.00
17525;BME280;40431;52.198;9.902;2023-04-01T03:05:31;98635.56;;;9.61;100.00
17525;BME280;40431;52.198;9.902;2023-04-01T03:07:57;98644.97;;;9.67;100.00
17525;BME280;40431;52.198;9.902;2023-04-01T03:10:24;98642.41;;;9.65;100.00
17525;BME280;40431;52.198;9.902;2023-04-01T03:12:53;98641.28;;;9.68;100.00
17525;BME280;40431;52.198;9.902;2023-04-01T03:15:21;98652.38;;;9.65;100.00
17525;BME280;40431;52.198;9.902;2023-04-01T03:17:47;98644.97;;;9.67;100.00
17525;BME280;40431;52.198;9.902;2023-04-01T03:20:14;98642.41;;;9.65;100.00
17525;BME280;40431;52.198;9.902;2023-04-01T03:26:02;98648.53;;;9.67;100.00
17525;BME280;40431;52.198;9.902;2023-04-01T03:28:28;98647.81;;;9.65;100.00
17525;BME280;40431;52.198;9.902;2023-04-01T03:30:56;98652.97;;;9.68;100.00
17525;BME280;40431;52.198;9.902;2023-04-01T03:33:22;98649.41;;;9.68;100.00
17525;BME280;40431;52.198;9.902;2023-04-01T03:35:49;98648.41;;;9.69;100.00
17525;BME280;40431;52.198;9.902;2023-04-01T03:38:17;98648.81;;;9.64;100.00
17525;BME280;40431;52.198;9.902;2023-04-01T03:40:46;98641.28;;;9.68;100.00
17525;BME280;40431;52.198;9.902;2023-04-01T03:43:12;98655.66;;;9.68;100.00
17525;BME280;40431;52.198;9.902;2023-04-01T03:45:43;98657.78;;;9.65;100.00
17525;BME280;40431;52.198;9.902;2023-04-01T03:48:11;98655.06;;;9.65;100.00
17525;BME280;40431;52.198;9.902;2023-04-01T03:50:38;98664.16;;;9.64;100.00
17525;BME280;40431;52.198;9.902;2023-04-01T03:53:04;98661.47;;;9.64;100.00
17525;BME280;40431;52.198;9.902;2023-04-01T03:55:30;98662.72;;;9.60;100.00
17525;BME280;40431;52.198;9.902;2023-04-01T03:57:57;98657.63;;;9.66;100.00
17525;BME280;40431;52.198;9.902;2023-04-01T04:00:23;98663.19;;;9.65;100.00
17525;BME280;40431;52.198;9.902;2023-04-01T04:02:49;98667.09;;;9.72;100.00
17525;BME280;40431;52.198;9.902;2023-04-01T04:05:17;98658.38;;;9.68;100.00
17525;BME280;40431;52.198;9.902;2023-04-01T04:07:43;98657.09;;;9.73;100.00
17525;BME280;40431;52.198;9.902;2023-04-01T04:10:10;98658.97;;;9.72;100.00
17525;BME280;40431;52.198;9.902;2023-04-01T04:12:36;98661.06;;;9.68;100.00
17525;BME280;40431;52.198;9.902;2023-04-01T04:15:03;98665.50;;;9.69;100.00
17525;BME280;40431;52.198;9.902;2023-04-01T04:17:30;98665.38;;;9.71;100.00
17525;BME280;40431;52.198;9.902;2023-04-01T04:19:56;98666.63;;;9.67;100.00
17525;BME280;40431;52.198;9.902;2023-04-01T04:22:24;98663.47;;;9.62;100.00
17525;BME280;40431;52.198;9.902;2023-04-01T04:24:50;98668.47;;;9.66;100.00
17525;BME280;40431;52.198;9.902;2023-04-01T04:27:17;98664.78;;;9.67;100.00
17525;BME280;40431;52.198;9.902;2023-04-01T04:29:43;98668.06;;;9.71;100.00
17525;BME280;40431;52.198;9.902;2023-04-01T04:32:09;98671.47;;;9.73;100.00
17525;BME280;40431;52.198;9.902;2023-04-01T04:34:36;98668.34;;;9.68;100.00
17525;BME280;40431;52.198;9.902;2023-04-01T04:37:02;98670.03;;;9.69;100.00
17525;BME280;40431;52.198;9.902;2023-04-01T04:39:30;98674.00;;;9.65;100.00
17525;BME280;40431;52.198;9.902;2023-04-01T04:41:57;98678.72;;;9.63;100.00
17525;BME280;40431;52.198;9.902;2023-04-01T04:44:23;98669.72;;;9.62;100.00
17525;BME280;40431;52.198;9.902;2023-04-01T04:46:49;98681.16;;;9.66;100.00
17525;BME280;40431;52.198;9.902;2023-04-01T04:49:16;98679.09;;;9.58;100.00
17525;BME280;40431;52.198;9.902;2023-04-01T04:51:42;98675.09;;;9.52;100.00
17525;BME280;40431;52.198;9.902;2023-04-01T04:54:09;98677.06;;;9.50;100.00
17525;BME280;40431;52.198;9.902;2023-04-01T04:56:37;98676.34;;;9.48;100.00
17525;BME280;40431;52.198;9.902;2023-04-01T04:59:03;98680.88;;;9.48;100.00
17525;BME280;40431;52.198;9.902;2023-04-01T05:01:29;98684.59;;;9.47;100.00
17525;BME280;40431;52.198;9.902;2023-04-01T05:03:56;98690.16;;;9.45;100.00
17525;BME280;40431;52.198;9.902;2023-04-01T05:06:22;98681.44;;;9.42;100.00
17525;BME280;40431;52.198;9.902;2023-04-01T05:08:50;98689.69;;;9.40;100.00
17525;BME280;40431;52.198;9.902;2023-04-01T05:11:18;98681.94;;;9.35;100.00
17525;BME280;40431;52.198;9.902;2023-04-01T05:13:47;98689.09;;;9.36;100.00
17525;BME280;40431;52.198;9.902;2023-04-01T05:16:15;98686.75;;;9.32;100.00
17525;BME280;40431;52.198;9.902;2023-04-01T05:18:42;98695.63;;;9.34;100.00
17525;BME280;40431;52.198;9.902;2023-04-01T05:21:10;98691.47;;;9.30;100.00
17525;BME280;40431;52.198;9.902;2023-04-01T05:23:37;98686.56;;;9.24;100.00
17525;BME280;40431;52.198;9.902;2023-04-01T05:26:04;98697.25;;;9.25;100.00
17525;BME280;40431;52.198;9.902;2023-04-01T05:28:30;98691.97;;;9.24;100.00
17525;BME280;40431;52.198;9.902;2023-04-01T05:31:00;98705.97;;;9.29;100.00
17525;BME280;40431;52.198;9.902;2023-04-01T05:33:26;98708.94;;;9.26;100.00
17525;BME280;40431;52.198;9.902;2023-04-01T05:35:53;98703.41;;;9.27;100.00
17525;BME280;40431;52.198;9.902;2023-04-01T05:38:20;98698.13;;;9.26;100.00
17525;BME280;40431;52.198;9.902;2023-04-01T05:40:46;98706.25;;;9.26;100.00
17525;BME280;40431;52.198;9.902;2023-04-01T05:43:13;98711.38;;;9.29;100.00
17525;BME280;40431;52.198;9.902;2023-04-01T05:45:40;98705.97;;;9.29;100.00
17525;BME280;40431;52.198;9.902;2023-04-01T05:48:07;98706.16;;;9.37;100.00
17525;BME280;40431;52.198;9.902;2023-04-01T05:50:34;98710.84;;;9.35;100.00
17525;BME280;40431;52.198;9.902;2023-04-01T05:53:00;98711.97;;;9.32;100.00
17525;BME280;40431;52.198;9.902;2023-04-01T05:55:26;98701.75;;;9.36;100.00
17525;BME280;40431;52.198;9.902;2023-04-01T05:57:53;98710.59;;;9.38;100.00
17525;BME280;40431;52.198;9.902;2023-04-01T06:00:19;98710.06;;;9.44;100.00
17525;BME280;40431;52.198;9.902;2023-04-01T06:02:46;98707.84;;;9.49;100.00
17525;BME280;40431;52.198;9.902;2023-04-01T06:05:17;98715.06;;;9.49;100.00
17525;BME280;40431;52.198;9.902;2023-04-01T06:07:44;98713.25;;;9.49;100.00
17525;BME280;40431;52.198;9.902;2023-04-01T06:10:14;98717.53;;;9.52;100.00
17525;BME280;40431;52.198;9.902;2023-04-01T06:12:48;98723.50;;;9.56;100.00
17525;BME280;40431;52.198;9.902;2023-04-01T06:15:27;98714.28;;;9.58;100.00
17525;BME280;40431;52.198;9.902;2023-04-01T06:18:08;98722.41;;;9.58;100.00
17525;BME280;40431;52.198;9.902;2023-04-01T06:20:42;98724.97;;;9.60;100.00
17525;BME280;40431;52.198;9.902;2023-04-01T06:23:22;98728.69;;;9.59;100.00
17525;BME280;40431;52.198;9.902;2023-04-01T06:26:00;98735.53;;;9.63;100.00
17525;BME280;40431;52.198;9.902;2023-04-01T06:32:06;98731.56;;;9.67;100.00
17525;BME280;40431;52.198;9.902;2023-04-01T06:34:48;98733.31;;;9.68;100.00
17525;BME280;40431;52.198;9.902;2023-04-01T06:37:41;98739.88;;;9.75;100.00
17525;BME280;40431;52.198;9.902;2023-04-01T06:40:26;98740.22;;;9.82;100.00
17525;BME280;40431;52.198;9.902;2023-04-01T06:43:03;98739.38;;;9.81;100.00
17525;BME280;40431;52.198;9.902;2023-04-01T06:45:38;98744.78;;;9.81;100.00
17525;BME280;40431;52.198;9.902;2023-04-01T06:48:22;98744.03;;;9.79;100.00
17525;BME280;40431;52.198;9.902;2023-04-01T06:50:58;98746.09;;;9.87;100.00
17525;BME280;40431;52.198;9.902;2023-04-01T06:53:35;98747.06;;;9.86;100.00
17525;BME280;40431;52.198;9.902;2023-04-01T06:56:07;98752.34;;;9.88;100.00
17525;BME280;40431;52.198;9.902;2023-04-01T06:58:37;98750.38;;;9.90;100.00
17525;BME280;40431;52.198;9.902;2023-04-01T07:01:07;98749.09;;;9.94;100.00
17525;BME280;40431;52.198;9.902;2023-04-01T07:03:38;98747.38;;;9.93;100.00
17525;BME280;40431;52.198;9.902;2023-04-01T07:06:10;98751.53;;;9.97;100.00
17525;BME280;40431;52.198;9.902;2023-04-01T07:08:41;98752.56;;;9.96;100.00
17525;BME280;40431;52.198;9.902;2023-04-01T07:11:11;98752.28;;;9.99;100.00
17525;BME280;40431;52.198;9.902;2023-04-01T07:13:45;98758.16;;;10.04;100.00
17525;BME280;40431;52.198;9.902;2023-04-01T07:16:17;98750.59;;;10.08;100.00
17525;BME280;40431;52.198;9.902;2023-04-01T07:18:48;98760.06;;;10.13;100.00
17525;BME280;40431;52.198;9.902;2023-04-01T07:21:23;98763.47;;;10.15;100.00
17525;BME280;40431;52.198;9.902;2023-04-01T07:23:54;98769.78;;;10.26;100.00
17525;BME280;40431;52.198;9.902;2023-04-01T07:26:23;98766.69;;;10.30;100.00
17525;BME280;40431;52.198;9.902;2023-04-01T07:28:51;98775.38;;;10.34;100.00
17525;BME280;40431;52.198;9.902;2023-04-01T07:31:33;98772.31;;;10.39;100.00
17525;BME280;40431;52.198;9.902;2023-04-01T07:34:09;98778.75;;;10.47;100.00
17525;BME280;40431;52.198;9.902;2023-04-01T07:36:42;98768.78;;;10.48;100.00
17525;BME280;40431;52.198;9.902;2023-04-01T07:39:22;98778.34;;;10.52;100.00
17525;BME280;40431;52.198;9.902;2023-04-01T07:41:56;98788.06;;;10.55;100.00
17525;BME280;40431;52.198;9.902;2023-04-01T07:44:31;98786.78;;;10.59;100.00
17525;BME280;40431;52.198;9.902;2023-04-01T07:47:09;98788.78;;;10.57;100.00
17525;BME280;40431;52.198;9.902;2023-04-01T07:49:46;98788.22;;;10.63;100.00
17525;BME280;40431;52.198;9.902;2023-04-01T07:52:19;98789.66;;;10.57;100.00
17525;BME280;40431;52.198;9.902;2023-04-01T07:54:55;98791.47;;;10.57;100.00
17525;BME280;40431;52.198;9.902;2023-04-01T07:57:28;98800.34;;;10.59;100.00
17525;BME280;40431;52.198;9.902;2023-04-01T08:00:03;98800.34;;;10.59;100.00
17525;BME280;40431;52.198;9.902;2023-04-01T08:02:47;98806.22;;;10.64;100.00
17525;BME280;40431;52.198;9.902;2023-04-01T08:05:24;98807.09;;;10.74;100.00
17525;BME280;40431;52.198;9.902;2023-04-01T08:07:58;98809.25;;;10.80;100.00
17525;BME280;40431;52.198;9.902;2023-04-01T08:10:33;98806.25;;;10.83;100.00
17525;BME280;40431;52.198;9.902;2023-04-01T08:13:11;98814.84;;;10.89;100.00
17525;BME280;40431;52.198;9.902;2023-04-01T08:15:49;98820.69;;;10.94;100.00
17525;BME280;40431;52.198;9.902;2023-04-01T08:18:27;98820.00;;;11.01;100.00
17525;BME280;40431;52.198;9.902;2023-04-01T08:20:58;98822.28;;;11.06;100.00
17525;BME280;40431;52.198;9.902;2023-04-01T08:23:27;98822.03;;;11.09;100.00
17525;BME280;40431;52.198;9.902;2023-04-01T08:26:01;98825.19;;;11.14;100.00
17525;BME280;40431;52.198;9.902;2023-04-01T08:28:35;98828.06;;;11.23;100.00
17525;BME280;40431;52.198;9.902;2023-04-01T08:31:08;98828.34;;;11.29;100.00
17525;BME280;40431;52.198;9.902;2023-04-01T08:33:39;98827.75;;;11.26;100.00
17525;BME280;40431;52.198;9.902;2023-04-01T08:36:08;98830.91;;;11.31;100.00
17525;BME280;40431;52.198;9.902;2023-04-01T08:38:40;98830.06;;;11.30;100.00
17525;BME280;40431;52.198;9.902;2023-04-01T08:41:46;98823.94;;;11.38;100.00
17525;BME280;40431;52.198;9.902;2023-04-01T08:44:39;98827.22;;;11.32;100.00
17525;BME280;40431;52.198;9.902;2023-04-01T08:47:39;98831.50;;;11.34;100.00
17525;BME280;40431;52.198;9.902;2023-04-01T08:50:36;98842.06;;;11.38;100.00
17525;BME280;40431;52.198;9.902;2023-04-01T08:53:14;98842.66;;;11.41;100.00
17525;BME280;40431;52.198;9.902;2023-04-01T08:56:05;98841.66;;;11.42;100.00
17525;BME280;40431;52.198;9.902;2023-04-01T08:59:02;98846.25;;;11.51;100.00
17525;BME280;40431;52.198;9.902;2023-04-01T09:01:50;98846.63;;;11.57;100.00
17525;BME280;40431;52.198;9.902;2023-04-01T09:04:25;98840.81;;;11.61;100.00
17525;BME280;40431;52.198;9.902;2023-04-01T09:07:21;98844.09;;;11.65;100.00
17525;BME280;40431;52.198;9.902;2023-04-01T09:10:19;98851.09;;;11.77;100.00
17525;BME280;40431;52.198;9.902;2023-04-01T09:13:01;98844.38;;;11.81;100.00
17525;BME280;40431;52.198;9.902;2023-04-01T09:15:56;98846.78;;;11.84;100.00
17525;BME280;40431;52.198;9.902;2023-04-01T09:18:45;98852.22;;;11.94;100.00
17525;BME280;40431;52.198;9.902;2023-04-01T09:21:25;98850.66;;;12.01;100.00
17525;BME280;40431;52.198;9.902;2023-04-01T09:24:14;98855.53;;;12.08;100.00
17525;BME280;40431;52.198;9.902;2023-04-01T09:27:04;98858.94;;;12.10;100.00
17525;BME280;40431;52.198;9.902;2023-04-01T09:29:43;98851.66;;;12.10;100.00
17525;BME280;40431;52.198;9.902;2023-04-01T09:35:17;98867.25;;;11.98;100.00
17525;BME280;40431;52.198;9.902;2023-04-01T09:37:53;98865.81;;;12.04;100.00
17525;BME280;40431;52.198;9.902;2023-04-01T09:40:31;98867.53;;;12.15;100.00
17525;BME280;40431;52.198;9.902;2023-04-01T09:43:14;98873.84;;;12.15;100.00
17525;BME280;40431;52.198;9.902;2023-04-01T09:45:48;98866.22;;;12.19;100.00
17525;BME280;40431;52.198;9.902;2023-04-01T09:48:53;98883.78;;;12.34;100.00
17525;BME280;40431;52.198;9.902;2023-04-01T09:51:28;98883.22;;;12.31;100.00
17525;BME280;40431;52.198;9.902;2023-04-01T09:54:04;98875.81;;;12.33;100.00
17525;BME280;40431;52.198;9.902;2023-04-01T09:57:09;98880.25;;;12.34;100.00
17525;BME280;40431;52.198;9.902;2023-04-01T10:00:15;98888.94;;;12.38;100.00
17525;BME280;40431;52.198;9.902;2023-04-01T10:03:12;98889.09;;;12.36;100.00
17525;BME280;40431;52.198;9.902;2023-04-01T10:18:56;98893.53;;;12.37;100.00
17525;BME280;40431;52.198;9.902;2023-04-01T10:21:45;98903.41;;;12.38;100.00
17525;BME280;40431;52.198;9.902;2023-04-01T10:24:46;98909.84;;;12.37;100.00
17525;BME280;40431;52.198;9.902;2023-04-01T10:33:43;98916.97;;;12.48;100.00
17525;BME280;40431;52.198;9.902;2023-04-01T10:39:22;98912.38;;;12.48;100.00
17525;BME280;40431;52.198;9.902;2023-04-01T10:42:14;98909.53;;;12.50;100.00
17525;BME280;40431;52.198;9.902;2023-04-01T10:45:13;98916.53;;;12.52;100.00
17525;BME280;40431;52.198;9.902;2023-04-01T10:48:04;98909.22;;;12.53;100.00
17525;BME280;40431;52.198;9.902;2023-04-01T10:51:10;98920.81;;;12.55;100.00
17525;BME280;40431;52.198;9.902;2023-04-01T10:53:49;98915.50;;;12.53;100.00
17525;BME280;40431;52.198;9.902;2023-04-01T10:56:40;98925.38;;;12.55;100.00
17525;BME280;40431;52.198;9.902;2023-04-01T10:59:32;98924.50;;;12.64;100.00
17525;BME280;40431;52.198;9.902;2023-04-01T11:02:20;98922.50;;;12.66;100.00
17525;BME280;40431;52.198;9.902;2023-04-01T11:08:28;98919.78;;;12.66;100.00
17525;BME280;40431;52.198;9.902;2023-04-01T11:11:42;98925.22;;;12.66;100.00
17525;BME280;40431;52.198;9.902;2023-04-01T11:14:33;98927.53;;;12.61;100.00
17525;BME280;40431;52.198;9.902;2023-04-01T11:23:18;98949.25;;;12.70;100.00
17525;BME280;40431;52.198;9.902;2023-04-01T11:26:08;98940.38;;;12.78;100.00
17525;BME280;40431;52.198;9.902;2023-04-01T11:31:47;98943.22;;;12.77;100.00
17525;BME280;40431;52.198;9.902;2023-04-01T11:34:29;98949.94;;;12.82;100.00
17525;BME280;40431;52.198;9.902;2023-04-01T11:37:06;98937.75;;;12.86;100.00
17525;BME280;40431;52.198;9.902;2023-04-01T11:39:42;98943.31;;;12.95;100.00
17525;BME280;40431;52.198;9.902;2023-04-01T11:42:19;98941.63;;;12.94;100.00
17525;BME280;40431;52.198;9.902;2023-04-01T11:44:57;98944.59;;;13.00;100.00
17525;BME280;40431;52.198;9.902;2023-04-01T11:47:47;98945.44;;;13.01;100.00
17525;BME280;40431;52.198;9.902;2023-04-01T11:50:27;98945.13;;;13.04;100.00
17525;BME280;40431;52.198;9.902;2023-04-01T11:53:06;98961.47;;;13.04;100.00
17525;BME280;40431;52.198;9.902;2023-04-01T11:55:47;98953.16;;;13.06;100.00
17525;BME280;40431;52.198;9.902;2023-04-01T12:01:22;98965.00;;;13.14;100.00
17525;BME280;40431;52.198;9.902;2023-04-01T12:04:12;98963.00;;;13.16;100.00
17525;BME280;40431;52.198;9.902;2023-04-01T12:06:48;98966.56;;;13.17;100.00
17525;BME280;40431;52.198;9.902;2023-04-01T12:09:21;98965.13;;;13.23;100.00
17525;BME280;40431;52.198;9.902;2023-04-01T12:12:02;98964.69;;;13.17;100.00
17525;BME280;40431;52.198;9.902;2023-04-01T12:14:39;98968.88;;;13.22;100.00
17525;BME280;40431;52.198;9.902;2023-04-01T12:17:15;98976.25;;;13.29;100.00
17525;BME280;40431;52.198;9.902;2023-04-01T12:19:54;98975.81;;;13.34;100.00
17525;BME280;40431;52.198;9.902;2023-04-01T12:22:31;98981.72;;;13.39;100.00
17525;BME280;40431;52.198;9.902;2023-04-01T12:25:07;98981.56;;;13.41;100.00
17525;BME280;40431;52.198;9.902;2023-04-01T12:27:52;98982.09;;;13.34;100.00
17525;BME280;40431;52.198;9.902;2023-04-01T12:30:46;98976.53;;;13.36;100.00
17525;BME280;40431;52.198;9.902;2023-04-01T12:33:43;98986.84;;;13.42;100.00
17525;BME280;40431;52.198;9.902;2023-04-01T12:36:19;98985.13;;;13.41;100.00
17525;BME280;40431;52.198;9.902;2023-04-01T12:39:01;98991.59;;;13.40;100.00
17525;BME280;40431;52.198;9.902;2023-04-01T12:41:37;98987.00;;;13.41;100.00
17525;BME280;40431;52.198;9.902;2023-04-01T12:44:23;98992.84;;;13.46;100.00
17525;BME280;40431;52.198;9.902;2023-04-01T12:47:11;98993.00;;;13.44;100.00
17525;BME280;40431;52.198;9.902;2023-04-01T12:50:06;98991.84;;;13.47;100.00
17525;BME280;40431;52.198;9.902;2023-04-01T12:52:54;99001.88;;;13.46;100.00
17525;BME280;40431;52.198;9.902;2023-04-01T12:55:37;99007.41;;;13.55;100.00
17525;BME280;40431;52.198;9.902;2023-04-01T12:58:27;99008.94;;;13.39;100.00
17525;BME280;40431;52.198;9.902;2023-04-01T13:01:11;99005.75;;;13.34;100.00
17525;BME280;40431;52.198;9.902;2023-04-01T13:07:01;99013.31;;;13.02;100.00
17525;BME280;40431;52.198;9.902;2023-04-01T13:09:41;99012.19;;;12.85;100.00
17525;BME280;40431;52.198;9.902;2023-04-01T13:12:32;99024.25;;;12.73;100.00
17525;BME280;40431;52.198;9.902;2023-04-01T13:15:22;99019.66;;;12.83;100.00
17525;BME280;40431;52.198;9.902;2023-04-01T13:17:53;99024.53;;;12.90;100.00
17525;BME280;40431;52.198;9.902;2023-04-01T13:20:39;99022.06;;;12.86;100.00
17525;BME280;40431;52.198;9.902;2023-04-01T13:23:18;99034.91;;;13.04;100.00
17525;BME280;40431;52.198;9.902;2023-04-01T13:25:57;99033.34;;;13.11;100.00
17525;BME280;40431;52.198;9.902;2023-04-01T13:28:33;99038.78;;;13.11;100.00
17525;BME280;40431;52.198;9.902;2023-04-01T13:31:08;99042.47;;;13.20;100.00
17525;BME280;40431;52.198;9.902;2023-04-01T13:33:40;99044.91;;;13.23;100.00
17525;BME280;40431;52.198;9.902;2023-04-01T13:36:19;99040.38;;;13.04;100.00
17525;BME280;40431;52.198;9.902;2023-04-01T13:38:59;99041.97;;;12.97;100.00
17525;BME280;40431;52.198;9.902;2023-04-01T13:42:01;99043.72;;;12.78;100.00
17525;BME280;40431;52.198;9.902;2023-04-01T13:44:37;99043.72;;;12.68;100.00
17525;BME280;40431;52.198;9.902;2023-04-01T13:47:15;99052.31;;;12.44;100.00
17525;BME280;40431;52.198;9.902;2023-04-01T13:53:04;99050.25;;;12.07;100.00
17525;BME280;40431;52.198;9.902;2023-04-01T13:55:59;99051.00;;;11.99;100.00
17525;BME280;40431;52.198;9.902;2023-04-01T13:58:46;99059.34;;;11.77;100.00
17525;BME280;40431;52.198;9.902;2023-04-01T14:01:23;99061.44;;;11.63;100.00
17525;BME280;40431;52.198;9.902;2023-04-01T14:07:26;99065.13;;;11.62;100.00
17525;BME280;40431;52.198;9.902;2023-04-01T14:10:04;99072.69;;;11.59;100.00
17525;BME280;40431;52.198;9.902;2023-04-01T14:12:39;99086.41;;;11.57;100.00
17525;BME280;40431;52.198;9.902;2023-04-01T14:15:25;99094.13;;;11.62;100.00
17525;BME280;40431;52.198;9.902;2023-04-01T14:18:05;99095.56;;;11.66;100.00
17525;BME280;40431;52.198;9.902;2023-04-01T14:20:39;99095.53;;;11.56;100.00
17525;BME280;40431;52.198;9.902;2023-04-01T14:23:21;99105.25;;;11.59;100.00
17525;BME280;40431;52.198;9.902;2023-04-01T14:28:59;99117.53;;;11.53;100.00
17525;BME280;40431;52.198;9.902;2023-04-01T14:31:42;99118.66;;;11.50;100.00
17525;BME280;40431;52.198;9.902;2023-04-01T14:34:19;99118.66;;;11.50;100.00
17525;BME280;40431;52.198;9.902;2023-04-01T14:37:05;99127.25;;;11.56;100.00
17525;BME280;40431;52.198;9.902;2023-04-01T14:40:11;99125.53;;;11.55;100.00